100LL.CA
Aviation Fuel Pricing for Canadians
Please upgrade your browser - Tested with IE9, FireFox, Chrome, Safari

Fuel Airports Other Help
Prices Economy Info List METAR/TAF Kneeboard Help

Reference Airport: WHITEHORSE/ERIK NIELSEN INTL, YT
N 60 42 34  W 135 04 02
Provinces to show:

CYXY WHITEHORSE/ERIK NIELSEN INTL, YT
WEATHER
METARCYXY 230400Z 22017G30KT 15SM FEW050 00/M13 A2948 RMK SC1 SC TR SLP020
TAFTAF AMD CYXY 230214Z 2302/2312 16012G22KT P6SM -SN SCT020 BKN050 BKN220 TEMPO 2302/2305 3SM -SN BKN020 BECMG 2302/2304 20013G23KT FM230500 20013G23KT P6SM SCT060 TEMPO 2305/2312 BKN060 BECMG 2308/2310 18010KT RMK NXT FCST BY 230600Z
OTHER SITES

FlightAware

FltPlan

Google Maps

SkyVector
FUEL
FBO 100LL
member
100LL
public
JETA MOGAS
North 60 Petro (2021-08-08)1.5991.145
Alkan Air (2018-03-13)1.9431.533
  Note: Alkan Air http://www.alkanair.com
Air North (2018-12-18)1.440
Canada Flight Supplement - CYXY
(opens in new tab/window)


Please Send Updates!

Desktop Version ]  [ Mobile Version ]  [ Disclaimer ]